Time;durP1;ratioP1;P1;durP2;ratioP2;P2;SDS_P1;SDS_P2;PMS_P1;PMS_P2;Temp;Humidity;BMP_temperature;BMP_pressure;BME280_temperature;BME280_humidity;BME280_pressure;Samples;Min_cycle;Max_cycle;Signal;HPM_P1;HPM_P2
2022/10/14 04:36:09;;;;;;;;;;;9.60;99.90;;;;;;6243291;22;20786;31
2022/10/14 07:21:54;;;;;;;;;;;9.70;99.90;;;;;;6235334;22;19923;31
2022/10/14 07:24:33;;;;;;;;;;;9.80;99.90;;;;;;6211761;23;19922;-80
2022/10/14 07:27:24;;;;;;;;;;;9.80;99.90;;;;;;6180954;23;19939;-82
2022/10/14 07:29:53;;;;;;;;;;;9.90;99.90;;;;;;6131140;23;19919;-79
2022/10/14 07:32:44;;;;;;;;;;;9.90;99.90;;;;;;6131310;23;19919;-80
2022/10/14 07:35:17;;;;;;;;;;;10.00;99.90;;;;;;6130984;23;19971;-80
2022/10/14 07:37:52;;;;;;;;;;;10.10;99.90;;;;;;6132556;23;19923;-81
2022/10/14 07:40:49;;;;;;;;;;;10.10;99.90;;;;;;6133101;23;19967;-79
2022/10/14 07:43:30;;;;;;;;;;;10.20;99.90;;;;;;6154176;23;20358;-80
2022/10/14 07:46:31;;;;;;;;;;;10.20;99.90;;;;;;6075532;23;20266;-79
2022/10/14 07:49:28;;;;;;;;;;;10.20;99.90;;;;;;6144656;23;19967;-81
2022/10/14 07:52:19;;;;;;;;;;;;;;;;;;;;;
2022/10/14 07:54:51;;;;;;;;;;;10.20;99.90;;;;;;6153770;23;19913;-77
2022/10/14 07:57:19;;;;;;;;;;;10.20;99.90;;;;;;6131525;23;19999;-78
2022/10/14 07:59:45;;;;;;;;;;;10.30;99.90;;;;;;6130826;23;19913;-79
2022/10/14 08:02:27;;;;;;;;;;;10.30;99.90;;;;;;6131267;23;19951;-81
2022/10/14 08:04:54;;;;;;;;;;;10.30;99.90;;;;;;6136264;23;19979;-79
2022/10/14 08:07:30;;;;;;;;;;;10.40;99.90;;;;;;6161165;23;19927;-80
2022/10/14 08:10:13;;;;;;;;;;;10.50;99.90;;;;;;6132375;23;19987;-80
2022/10/14 08:12:41;;;;;;;;;;;10.60;99.90;;;;;;6133732;23;19913;-78
2022/10/14 08:15:07;;;;;;;;;;;10.50;99.90;;;;;;6155700;23;19914;-79
2022/10/14 08:17:33;;;;;;;;;;;10.70;99.90;;;;;;6131184;23;19943;-80
2022/10/14 08:20:13;;;;;;;;;;;10.70;99.90;;;;;;6130953;23;19913;-82
2022/10/14 08:22:41;;;;;;;;;;;10.80;99.90;;;;;;6157644;23;19912;-79
2022/10/14 08:25:18;;;;;;;;;;;10.80;99.90;;;;;;6154850;23;20342;-80
2022/10/14 08:27:52;;;;;;;;;;;10.80;99.90;;;;;;6130686;23;20197;-80
2022/10/14 08:30:24;;;;;;;;;;;11.00;99.90;;;;;;6131164;23;20260;-79
2022/10/14 08:32:50;;;;;;;;;;;11.00;99.90;;;;;;6130709;23;19935;-80
2022/10/14 08:39:03;;;;;;;;;;;10.90;99.90;;;;;;6155825;23;19991;-75
2022/10/14 08:41:50;;;;;;;;;;;11.00;99.90;;;;;;6179184;23;19916;-77
2022/10/14 08:44:40;;;;;;;;;;;11.10;99.90;;;;;;6122130;23;19913;-72
2022/10/14 08:47:14;;;;;;;;;;;11.10;99.90;;;;;;6153838;23;19913;-81
2022/10/14 08:50:21;;;;;;;;;;;11.00;99.90;;;;;;6129824;23;20330;-78
2022/10/14 08:56:37;;;;;;;;;;;11.10;99.90;;;;;;6131359;23;19913;-79
2022/10/14 08:59:13;;;;;;;;;;;11.30;99.90;;;;;;6129271;23;20349;-79
2022/10/14 09:04:45;;;;;;;;;;;11.40;99.90;;;;;;6206540;23;19935;-78
2022/10/14 09:07:30;;;;;;;;;;;11.50;99.90;;;;;;6175370;23;19904;-78
2022/10/14 09:09:58;;;;;;;;;;;11.40;99.90;;;;;;6200352;23;20279;-76
2022/10/14 09:12:28;;;;;;;;;;;11.30;99.90;;;;;;6135097;23;20311;-76
2022/10/14 09:18:51;;;;;;;;;;;11.40;99.90;;;;;;6184907;23;20361;-79
2022/10/14 09:22:04;;;;;;;;;;;11.40;99.90;;;;;;6156793;23;20389;-78
2022/10/14 09:24:31;;;;;;;;;;;11.50;99.90;;;;;;6159084;23;19959;-73
2022/10/14 09:26:59;;;;;;;;;;;11.50;99.90;;;;;;6134018;23;19912;-73
2022/10/14 09:44:13;;;;;;;;;;;11.70;99.90;;;;;;6264308;22;20233;-78
2022/10/14 09:55:46;;;;;;;;;;;11.90;99.90;;;;;;6237994;22;19919;-81
2022/10/14 10:04:56;;;;;;;;;;;11.90;99.90;;;;;;6152210;23;19951;-78
2022/10/14 10:19:30;;;;;;;;;;;12.20;99.90;;;;;;6242848;22;19923;-74
2022/10/14 10:22:21;;;;;;;;;;;12.20;99.90;;;;;;6240461;23;19998;-82
2022/10/14 10:25:17;;;;;;;;;;;12.10;99.90;;;;;;6192139;23;19922;-83
2022/10/14 10:27:55;;;;;;;;;;;12.30;99.90;;;;;;6190943;23;19987;-79
2022/10/14 10:30:28;;;;;;;;;;;12.20;99.90;;;;;;6190357;23;19977;-76
2022/10/14 10:32:53;;;;;;;;;;;12.40;99.90;;;;;;6216698;23;19956;-75
2022/10/14 10:35:31;;;;;;;;;;;12.40;99.90;;;;;;6191388;23;20247;-74
2022/10/14 10:38:22;;;;;;;;;;;12.40;99.90;;;;;;6191356;23;19915;-78
2022/10/14 10:41:15;;;;;;;;;;;12.50;99.90;;;;;;6191151;23;19950;-79
2022/10/14 10:57:13;;;;;;;;;;;12.90;99.90;;;;;;6185001;23;19912;-78
2022/10/14 11:00:25;;;;;;;;;;;12.90;99.90;;;;;;6157777;23;20251;-76
2022/10/14 11:17:05;;;;;;;;;;;13.10;99.90;;;;;;6184372;23;19963;-76
2022/10/14 11:27:09;;;;;;;;;;;13.10;99.90;;;;;;6124449;23;19920;-76
2022/10/14 11:34:02;;;;;;;;;;;13.00;99.90;;;;;;6179828;23;20358;-77
2022/10/14 11:59:02;;;;;;;;;;;12.80;99.90;;;;;;6020028;23;19918;-76
2022/10/14 12:05:04;;;;;;;;;;;12.90;99.90;;;;;;6043159;23;19960;-77
2022/10/14 12:14:21;;;;;;;;;;;13.00;99.90;;;;;;6064359;23;19919;-79
2022/10/14 12:16:50;;;;;;;;;;;12.90;99.90;;;;;;6215203;23;20007;-76
2022/10/14 12:29:06;;;;;;;;;;;13.00;99.90;;;;;;6103718;23;20274;-77
2022/10/14 12:32:07;;;;;;;;;;;13.10;99.90;;;;;;6159239;23;19919;-81
2022/10/14 12:35:10;;;;;;;;;;;13.10;99.90;;;;;;6130790;23;19995;-79
2022/10/14 12:37:48;;;;;;;;;;;13.00;99.90;;;;;;6183839;23;19954;-77
2022/10/14 12:40:24;;;;;;;;;;;13.00;99.90;;;;;;6159442;23;19919;-81
2022/10/14 12:46:17;;;;;;;;;;;13.00;99.90;;;;;;6184922;23;19987;-79
2022/10/14 13:46:36;;;;;;;;;;;13.60;99.90;;;;;;6184053;23;19947;-75
2022/10/14 13:59:48;;;;;;;;;;;13.50;99.90;;;;;;6015356;23;19922;-75
2022/10/14 14:09:52;;;;;;;;;;;;;;;;;;;;;
2022/10/14 14:38:28;;;;;;;;;;;13.90;99.90;;;;;;6224234;22;20265;-71
2022/10/14 14:41:27;;;;;;;;;;;13.90;99.90;;;;;;6220200;23;19915;-73
2022/10/14 14:44:06;;;;;;;;;;;13.90;99.90;;;;;;6186657;23;19912;-71
2022/10/14 15:51:04;;;;;;;;;;;14.30;99.90;;;;;;6307424;22;19910;-73
2022/10/14 16:00:14;;;;;;;;;;;14.20;99.90;;;;;;6307351;22;19991;-71
2022/10/14 16:06:02;;;;;;;;;;;14.20;99.90;;;;;;6147931;23;19924;-73
2022/10/14 16:09:01;;;;;;;;;;;14.20;99.90;;;;;;6064940;23;19977;-73
2022/10/14 16:12:01;;;;;;;;;;;14.20;99.90;;;;;;6053675;23;19912;-72
2022/10/14 16:14:45;;;;;;;;;;;14.10;99.90;;;;;;6128228;23;19940;-75
2022/10/14 16:21:19;;;;;;;;;;;14.10;99.90;;;;;;6037306;23;19934;-84
2022/10/14 16:24:13;;;;;;;;;;;14.10;99.90;;;;;;6012988;23;20238;-85
2022/10/14 16:29:54;;;;;;;;;;;13.90;99.90;;;;;;6006195;23;19919;-80
2022/10/14 16:32:41;;;;;;;;;;;13.90;99.90;;;;;;6111605;23;19912;-82
2022/10/14 16:38:01;;;;;;;;;;;13.90;99.90;;;;;;6159501;23;19918;-72
2022/10/14 16:44:24;;;;;;;;;;;13.80;99.90;;;;;;6154416;23;19951;-76
2022/10/14 17:21:18;;;;;;;;;;;13.40;99.90;;;;;;6182480;23;19912;-74
2022/10/14 17:23:54;;;;;;;;;;;13.50;99.90;;;;;;6133519;23;19924;-77
2022/10/14 17:26:20;;;;;;;;;;;13.40;99.90;;;;;;6134115;23;19916;-76
2022/10/14 17:28:47;;;;;;;;;;;13.40;99.90;;;;;;6133978;23;20369;-74
2022/10/14 17:38:06;;;;;;;;;;;13.40;99.90;;;;;;6066036;23;19934;-79
2022/10/14 17:40:35;;;;;;;;;;;13.30;99.90;;;;;;6043085;23;19913;-76
2022/10/14 17:43:00;;;;;;;;;;;13.30;99.90;;;;;;6112580;23;19918;-76
2022/10/14 17:45:26;;;;;;;;;;;13.30;99.90;;;;;;6226092;22;19915;-74
2022/10/14 17:48:21;;;;;;;;;;;13.30;99.90;;;;;;6250671;22;20341;-76
2022/10/14 17:51:04;;;;;;;;;;;13.20;99.90;;;;;;6225609;22;20005;-80
2022/10/14 17:53:36;;;;;;;;;;;13.20;99.90;;;;;;6229506;22;20256;-78
2022/10/14 17:56:13;;;;;;;;;;;13.20;99.90;;;;;;6227342;22;19911;-76
2022/10/14 17:58:39;;;;;;;;;;;13.10;99.90;;;;;;6225403;22;19921;-76
2022/10/14 18:01:13;;;;;;;;;;;13.10;99.90;;;;;;6225245;22;19911;-75
2022/10/14 18:03:46;;;;;;;;;;;13.10;99.90;;;;;;6225029;22;19911;-79
2022/10/14 18:06:16;;;;;;;;;;;13.10;99.90;;;;;;6224703;22;19915;-72
2022/10/14 18:08:43;;;;;;;;;;;13.00;99.90;;;;;;6249492;22;19911;-76
2022/10/14 18:36:51;;;;;;;;;;;12.80;99.90;;;;;;6202378;22;19938;-75
2022/10/14 18:53:11;;;;;;;;;;;12.80;99.90;;;;;;6185131;23;20003;-75
2022/10/14 18:58:55;;;;;;;;;;;12.70;99.90;;;;;;6124779;23;19921;-74
2022/10/14 19:01:36;;;;;;;;;;;12.70;99.90;;;;;;6101989;23;20316;-79
2022/10/14 19:30:18;;;;;;;;;;;12.50;99.90;;;;;;6278992;22;19910;-82
2022/10/14 19:46:07;;;;;;;;;;;12.30;99.90;;;;;;6278672;22;20340;-79
2022/10/14 19:52:17;;;;;;;;;;;12.20;99.90;;;;;;6278475;22;19910;-85
2022/10/14 19:54:58;;;;;;;;;;;12.20;99.90;;;;;;6251539;22;19961;-84
2022/10/14 21:10:30;;;;;;;;;;;11.90;99.90;;;;;;6189619;23;19954;-76
2022/10/14 21:13:26;;;;;;;;;;;11.80;99.90;;;;;;6190237;23;19935;-78
2022/10/14 21:15:51;;;;;;;;;;;11.90;99.90;;;;;;6216608;23;20204;-79
2022/10/14 21:18:17;;;;;;;;;;;11.90;99.90;;;;;;6164528;23;19999;-77
2022/10/14 21:20:43;;;;;;;;;;;11.90;99.90;;;;;;6187005;23;19912;-77
2022/10/14 21:23:09;;;;;;;;;;;12.00;99.90;;;;;;6189442;23;20380;-77
2022/10/14 21:25:34;;;;;;;;;;;12.00;99.90;;;;;;6189220;23;19965;-75
2022/10/14 21:28:00;;;;;;;;;;;12.00;99.90;;;;;;6188866;23;19931;-77
2022/10/14 21:30:26;;;;;;;;;;;12.00;99.90;;;;;;6189187;23;19936;-78
2022/10/14 21:32:52;;;;;;;;;;;12.00;99.90;;;;;;6189426;23;19912;-79
2022/10/14 21:35:17;;;;;;;;;;;12.00;99.90;;;;;;6188498;23;19971;-78
2022/10/14 21:37:43;;;;;;;;;;;12.00;99.90;;;;;;6164130;23;20230;-80
2022/10/14 21:40:09;;;;;;;;;;;12.10;99.90;;;;;;6189324;23;19920;-77
2022/10/14 21:42:34;;;;;;;;;;;12.10;99.90;;;;;;6189225;23;19912;-78
2022/10/14 21:45:00;;;;;;;;;;;12.10;99.90;;;;;;6188842;23;19943;-77
2022/10/14 21:47:26;;;;;;;;;;;12.10;99.90;;;;;;6189262;23;19978;-76
2022/10/14 21:49:51;;;;;;;;;;;12.10;99.90;;;;;;6189333;23;20456;-77
2022/10/14 21:52:17;;;;;;;;;;;12.10;99.90;;;;;;6189393;23;19915;-76
2022/10/14 21:54:52;;;;;;;;;;;12.10;99.90;;;;;;6164639;23;19912;-76
2022/10/14 21:57:17;;;;;;;;;;;12.10;99.90;;;;;;6189455;23;19927;-78
